Time;durP1;ratioP1;P1;durP2;ratioP2;P2;SDS_P1;SDS_P2;PMS_P1;PMS_P2;Temp;Humidity;BMP_temperature;BMP_pressure;BME280_temperature;BME280_humidity;BME280_pressure;Samples;Min_cycle;Max_cycle;Signal;HPM_P1;HPM_P2
2021/04/17 00:00:23;;;;;;;7.82;3.88;;;6.70;68.20;;;;;;2072593;28;20037;-67
2021/04/17 00:01:23;;;;;;;6.53;3.38;;;6.60;68.10;;;;;;2073287;28;20052;-68
2021/04/17 00:02:24;;;;;;;6.47;3.83;;;6.60;68.20;;;;;;2080688;28;20516;-67
2021/04/17 00:03:24;;;;;;;5.32;3.45;;;6.60;68.10;;;;;;2080891;28;20105;-67
2021/04/17 00:04:27;;;;;;;7.53;3.60;;;6.60;68.10;;;;;;2080406;28;20456;-68
2021/04/17 00:05:28;;;;;;;6.63;3.67;;;6.60;68.30;;;;;;2080490;28;20040;-67
2021/04/17 00:06:29;;;;;;;8.75;3.95;;;6.60;68.10;;;;;;2071834;28;20457;-67
2021/04/17 00:07:30;;;;;;;8.43;4.03;;;6.60;67.90;;;;;;2072396;28;20083;-67
2021/04/17 00:08:31;;;;;;;7.15;3.92;;;6.60;68.20;;;;;;2070461;28;20076;-67
2021/04/17 00:09:32;;;;;;;8.15;4.00;;;6.60;68.10;;;;;;2068053;28;20115;-67
2021/04/17 00:10:33;;;;;;;7.13;3.67;;;6.60;68.10;;;;;;2070399;28;20040;-67
2021/04/17 00:11:33;;;;;;;5.93;3.63;;;6.50;68.10;;;;;;2067927;28;20036;-67
2021/04/17 00:12:34;;;;;;;6.07;3.65;;;6.60;68.20;;;;;;2072946;28;20061;-67
2021/04/17 00:13:35;;;;;;;7.90;3.60;;;6.60;68.30;;;;;;2072964;28;20022;-67
2021/04/17 00:14:37;;;;;;;6.28;3.45;;;6.60;68.20;;;;;;2072529;28;20710;-68
2021/04/17 00:15:38;;;;;;;7.40;3.47;;;6.60;68.10;;;;;;2072569;28;20057;-68
2021/04/17 00:16:39;;;;;;;5.90;3.50;;;6.60;68.20;;;;;;2071949;28;20022;-67
2021/04/17 00:17:40;;;;;;;6.72;3.75;;;6.60;68.20;;;;;;2072481;28;20033;-69
2021/04/17 00:18:40;;;;;;;7.43;3.53;;;6.60;68.50;;;;;;2072277;28;20056;-68
2021/04/17 00:19:45;;;;;;;5.57;3.60;;;6.60;68.50;;;;;;2072598;28;20026;-68
2021/04/17 00:20:46;;;;;;;8.15;4.10;;;6.60;68.20;;;;;;2072719;28;20068;-69
2021/04/17 00:21:46;;;;;;;8.65;3.60;;;6.60;68.10;;;;;;2072811;28;20026;-69
2021/04/17 00:22:47;;;;;;;6.95;3.80;;;6.60;68.10;;;;;;2072946;28;20097;-68
2021/04/17 00:23:48;;;;;;;5.93;3.72;;;6.60;68.80;;;;;;2073077;28;20580;-68
2021/04/17 00:24:49;;;;;;;5.85;3.33;;;6.60;68.00;;;;;;2079987;28;20025;-68
2021/04/17 00:25:50;;;;;;;6.25;3.70;;;6.70;68.10;;;;;;2079877;28;20762;-68
2021/04/17 00:26:51;;;;;;;6.07;3.40;;;6.60;68.20;;;;;;2071930;28;20033;-68
2021/04/17 00:27:51;;;;;;;6.03;3.53;;;6.60;68.30;;;;;;2072013;28;20037;-67
2021/04/17 00:28:52;;;;;;;5.78;3.50;;;6.60;68.40;;;;;;2072231;28;20022;-67
2021/04/17 00:29:53;;;;;;;6.05;3.53;;;6.60;68.60;;;;;;2072662;28;20043;-67
2021/04/17 00:30:54;;;;;;;8.02;4.07;;;6.60;68.80;;;;;;2072858;28;20025;-68
2021/04/17 00:31:54;;;;;;;7.25;3.97;;;6.60;68.80;;;;;;2073025;28;20504;-68
2021/04/17 00:32:55;;;;;;;6.25;3.58;;;6.50;68.90;;;;;;2072834;28;20026;-68
2021/04/17 00:33:56;;;;;;;5.85;3.67;;;6.50;69.00;;;;;;2074946;28;20040;-68
2021/04/17 00:34:57;;;;;;;7.63;3.70;;;6.50;69.10;;;;;;2078270;28;20013;-68
2021/04/17 00:35:58;;;;;;;6.68;3.55;;;6.50;69.10;;;;;;2080179;28;20101;-68
2021/04/17 00:36:58;;;;;;;8.60;3.70;;;6.50;69.20;;;;;;2081063;28;20500;-68
2021/04/17 00:37:59;;;;;;;9.45;4.20;;;6.50;69.30;;;;;;2080688;28;20032;-67
2021/04/17 00:38:59;;;;;;;7.90;3.70;;;6.50;69.10;;;;;;2080284;28;20108;-67
2021/04/17 00:40:00;;;;;;;6.18;3.70;;;6.50;69.40;;;;;;2072764;28;20030;-67
2021/04/17 00:41:01;;;;;;;5.57;3.63;;;6.50;69.30;;;;;;2066183;28;20408;-68
2021/04/17 00:42:02;;;;;;;8.00;3.75;;;6.50;69.10;;;;;;2070420;28;20104;-67
2021/04/17 00:43:03;;;;;;;7.97;4.00;;;6.50;69.10;;;;;;2072061;28;20018;-67
2021/04/17 00:44:05;;;;;;;6.82;3.60;;;6.60;69.10;;;;;;2072695;28;20026;-68
2021/04/17 00:45:06;;;;;;;7.07;3.80;;;6.50;68.90;;;;;;2072769;28;20030;-67
2021/04/17 00:46:07;;;;;;;5.53;3.67;;;6.50;69.30;;;;;;2064455;28;20022;-68
2021/04/17 00:47:08;;;;;;;11.68;4.00;;;6.50;69.50;;;;;;2071442;28;20083;-68
2021/04/17 00:48:11;;;;;;;7.00;3.70;;;6.50;69.70;;;;;;2080616;28;20026;-68
2021/04/17 00:49:12;;;;;;;7.65;3.78;;;6.40;69.80;;;;;;2064815;28;20022;-68
2021/04/17 00:50:13;;;;;;;7.60;3.80;;;6.40;69.90;;;;;;2064509;28;20029;-68
2021/04/17 00:51:15;;;;;;;7.05;3.75;;;6.40;69.80;;;;;;2080276;28;20501;-68
2021/04/17 00:52:16;;;;;;;9.05;4.20;;;6.40;70.10;;;;;;2080260;28;20075;-68
2021/04/17 00:53:18;;;;;;;8.32;3.80;;;6.40;70.50;;;;;;2080177;28;20021;-69
2021/04/17 00:54:20;;;;;;;9.25;3.97;;;6.40;70.40;;;;;;2080030;28;20511;-68
2021/04/17 00:55:21;;;;;;;8.05;4.00;;;6.40;70.50;;;;;;2080061;28;20096;-68
2021/04/17 00:56:21;;;;;;;8.45;3.85;;;6.30;70.50;;;;;;2071721;28;20026;-67
2021/04/17 00:57:22;;;;;;;6.95;3.92;;;6.30;70.60;;;;;;2072471;28;20029;-67
2021/04/17 00:58:23;;;;;;;6.80;3.63;;;6.30;70.60;;;;;;2072473;28;20057;-68
2021/04/17 00:59:23;;;;;;;5.97;3.55;;;6.30;70.80;;;;;;2070971;28;20034;-67
2021/04/17 01:00:24;;;;;;;6.15;3.97;;;6.30;71.20;;;;;;2065844;28;20018;-68
2021/04/17 01:01:25;;;;;;;7.53;4.22;;;6.30;71.30;;;;;;2071844;28;20501;-68
2021/04/17 01:02:31;;;;;;;6.55;3.78;;;6.30;71.60;;;;;;2071896;28;20052;-68
2021/04/17 01:03:55;;;;;;;5.93;4.00;;;6.30;71.40;;;;;;2072444;28;20030;-68
2021/04/17 01:04:57;;;;;;;8.32;4.03;;;6.30;71.50;;;;;;2066822;28;20022;-68
2021/04/17 01:06:03;;;;;;;7.00;3.67;;;6.30;71.60;;;;;;2070282;28;20593;-68
2021/04/17 01:07:27;;;;;;;5.78;3.80;;;6.30;71.60;;;;;;2065648;28;20844;-68
2021/04/17 01:08:36;;;;;;;5.68;3.72;;;6.30;71.90;;;;;;2065777;28;20030;-68
2021/04/17 01:09:58;;;;;;;8.10;3.70;;;6.30;72.00;;;;;;2071884;28;20033;-68
2021/04/17 01:11:05;;;;;;;7.30;3.55;;;6.20;72.00;;;;;;2072586;28;20049;-67
2021/04/17 01:12:10;;;;;;;6.70;3.45;;;6.30;72.10;;;;;;2072525;28;20025;-68
2021/04/17 01:13:11;;;;;;;6.45;3.42;;;6.30;72.10;;;;;;2064411;28;20132;-68
2021/04/17 01:14:14;;;;;;;6.22;3.90;;;6.30;72.30;;;;;;2072216;28;20030;-68
2021/04/17 01:15:16;;;;;;;5.65;3.53;;;6.20;72.30;;;;;;2072455;28;20061;-67
2021/04/17 01:16:18;;;;;;;5.38;3.42;;;6.30;72.30;;;;;;2079507;28;20014;-68
2021/04/17 01:17:19;;;;;;;4.85;3.00;;;6.20;72.40;;;;;;2080022;28;20034;-67
2021/04/17 01:18:23;;;;;;;5.65;3.13;;;6.30;72.60;;;;;;2079915;28;20036;-68
2021/04/17 01:19:38;;;;;;;5.50;3.03;;;6.20;72.70;;;;;;2079771;28;20040;-68
2021/04/17 01:20:43;;;;;;;7.72;3.38;;;6.20;73.00;;;;;;2080182;28;20021;-67
2021/04/17 01:21:44;;;;;;;8.43;3.58;;;6.20;72.90;;;;;;2079944;28;20412;-68
2021/04/17 01:23:01;;;;;;;8.00;3.40;;;6.20;72.90;;;;;;2072648;28;20493;-68
2021/04/17 01:24:07;;;;;;;6.07;3.10;;;6.20;72.80;;;;;;2066066;28;20052;-68
2021/04/17 01:25:14;;;;;;;6.28;3.30;;;6.20;72.70;;;;;;2071419;28;20110;-67
2021/04/17 01:26:17;;;;;;;7.28;3.03;;;6.20;72.60;;;;;;2063791;28;20413;-68
2021/04/17 01:27:18;;;;;;;6.05;3.20;;;6.20;72.80;;;;;;2072392;28;20034;-68
2021/04/17 01:28:20;;;;;;;8.15;3.33;;;6.20;72.90;;;;;;2079242;28;20029;-68
2021/04/17 01:29:21;;;;;;;7.90;3.20;;;6.20;73.10;;;;;;2064451;28;20806;-68
2021/04/17 01:30:22;;;;;;;6.78;2.97;;;6.20;73.00;;;;;;2065780;28;20030;-68
2021/04/17 01:31:30;;;;;;;5.43;2.80;;;6.20;72.90;;;;;;2072592;28;20041;-68
2021/04/17 01:32:31;;;;;;;6.78;3.13;;;6.20;72.90;;;;;;2080124;28;20022;-68
2021/04/17 01:33:35;;;;;;;7.47;3.20;;;6.20;73.10;;;;;;2079925;28;20029;-68
2021/04/17 01:34:37;;;;;;;5.88;2.80;;;6.20;73.10;;;;;;2072237;28;20101;-68
2021/04/17 01:35:38;;;;;;;5.90;2.80;;;6.20;73.20;;;;;;2068110;28;20144;-68
2021/04/17 01:36:40;;;;;;;7.07;3.00;;;6.20;73.20;;;;;;2066659;28;20022;-68
2021/04/17 01:37:52;;;;;;;6.43;2.90;;;6.20;73.20;;;;;;2072257;28;20363;-69
2021/04/17 01:39:01;;;;;;;6.90;3.03;;;6.20;73.60;;;;;;2066920;28;20022;-68
2021/04/17 01:40:02;;;;;;;7.70;2.83;;;6.20;73.80;;;;;;2071102;28;20073;-68
2021/04/17 01:41:28;;;;;;;6.32;2.70;;;6.20;73.70;;;;;;2065874;28;20070;-68
2021/04/17 01:42:29;;;;;;;7.45;2.90;;;6.20;74.10;;;;;;2066506;28;20030;-69
2021/04/17 01:43:32;;;;;;;6.07;3.00;;;6.10;74.40;;;;;;2072339;28;20071;-68
2021/04/17 01:44:35;;;;;;;8.55;3.30;;;6.10;74.70;;;;;;2072137;28;20024;-68
2021/04/17 01:45:37;;;;;;;7.45;2.90;;;6.10;74.80;;;;;;2072179;28;20080;-68
2021/04/17 01:46:45;;;;;;;7.82;2.70;;;6.10;75.20;;;;;;2071060;28;20026;-68
2021/04/17 01:47:48;;;;;;;7.50;2.97;;;6.10;75.50;;;;;;2071599;28;20152;-68
2021/04/17 01:49:03;;;;;;;6.90;3.10;;;6.10;76.30;;;;;;2072243;28;20018;-68
2021/04/17 01:50:05;;;;;;;7.20;3.00;;;6.10;76.70;;;;;;2072102;28;20038;-67
2021/04/17 01:51:06;;;;;;;6.40;2.95;;;6.10;76.90;;;;;;2072099;28;20105;-68
2021/04/17 01:52:10;;;;;;;9.40;3.38;;;6.10;77.50;;;;;;2072132;28;20021;-68
2021/04/17 01:53:14;;;;;;;8.98;2.88;;;6.00;78.00;;;;;;2072158;28;20026;-68
2021/04/17 01:54:21;;;;;;;4.75;2.60;;;5.90;78.80;;;;;;2072064;28;20035;-69
2021/04/17 01:55:23;;;;;;;6.07;3.10;;;5.90;79.00;;;;;;2071672;28;20022;-68
2021/04/17 01:56:25;;;;;;;5.60;3.15;;;5.90;79.30;;;;;;2072275;28;20434;-66
2021/04/17 01:57:27;;;;;;;6.53;3.10;;;5.80;79.70;;;;;;2071855;28;20026;-69
2021/04/17 01:58:31;;;;;;;6.93;2.97;;;5.80;79.50;;;;;;2075052;28;20026;-68
2021/04/17 01:59:34;;;;;;;4.75;3.20;;;5.80;79.70;;;;;;2080883;28;20025;-68
2021/04/17 02:00:35;;;;;;;7.28;2.90;;;5.80;79.70;;;;;;2073594;28;20038;-69
2021/04/17 02:01:37;;;;;;;9.00;3.15;;;5.70;80.00;;;;;;2073642;28;20066;-68
2021/04/17 02:02:38;;;;;;;5.38;3.03;;;5.70;80.10;;;;;;2073639;28;20486;-68
2021/04/17 02:03:38;;;;;;;5.50;2.80;;;5.70;80.30;;;;;;2072777;28;20022;-68
2021/04/17 02:04:39;;;;;;;7.40;3.30;;;5.70;80.30;;;;;;2064760;28;20018;-68
2021/04/17 02:05:39;;;;;;;6.35;3.00;;;5.70;80.50;;;;;;2072818;28;20045;-68
2021/04/17 02:06:40;;;;;;;5.47;3.00;;;5.70;80.70;;;;;;2068259;28;20397;-68
2021/04/17 02:07:41;;;;;;;6.28;3.15;;;5.70;80.90;;;;;;2072730;28;20052;-68
2021/04/17 02:08:42;;;;;;;4.60;3.08;;;5.70;81.50;;;;;;2072816;28;20040;-68
2021/04/17 02:09:42;;;;;;;5.65;3.13;;;5.70;82.20;;;;;;2072867;28;20030;-67
2021/04/17 02:10:44;;;;;;;8.15;3.20;;;5.70;82.40;;;;;;2073536;28;20489;-68
2021/04/17 02:11:45;;;;;;;7.63;3.22;;;5.80;82.60;;;;;;2073539;28;20489;-67
2021/04/17 02:12:46;;;;;;;5.75;3.10;;;5.70;82.80;;;;;;2073497;28;20042;-68
2021/04/17 02:13:46;;;;;;;6.65;3.10;;;5.70;83.20;;;;;;2072682;28;20036;-68
2021/04/17 02:14:47;;;;;;;6.75;3.30;;;5.70;83.60;;;;;;2072799;28;20085;-68
2021/04/17 02:15:48;;;;;;;7.55;3.10;;;5.70;84.30;;;;;;2072416;28;20493;-66
2021/04/17 02:16:58;;;;;;;7.50;3.28;;;5.60;84.90;;;;;;2068192;28;20010;-66
2021/04/17 02:18:04;;;;;;;6.93;3.10;;;5.50;85.40;;;;;;2078174;28;20072;-67
2021/04/17 02:19:10;;;;;;;8.25;3.38;;;5.40;85.90;;;;;;2073670;28;20022;-68
2021/04/17 02:20:20;;;;;;;5.95;3.20;;;5.30;86.90;;;;;;2081404;28;20029;-68
2021/04/17 02:21:26;;;;;;;7.10;3.30;;;5.20;87.50;;;;;;2066006;28;20080;-68
2021/04/17 02:22:28;;;;;;;5.97;3.30;;;5.20;88.10;;;;;;2071351;28;20034;-68
2021/04/17 02:23:29;;;;;;;7.38;3.80;;;5.10;89.00;;;;;;2067722;28;20038;-68
2021/04/17 02:24:30;;;;;;;7.03;3.17;;;5.10;89.40;;;;;;2073067;28;20478;-67
2021/04/17 02:25:31;;;;;;;9.70;3.70;;;5.00;90.10;;;;;;2080970;28;20117;-68
2021/04/17 02:26:33;;;;;;;7.32;3.45;;;5.00;90.20;;;;;;2080478;28;20037;-68
2021/04/17 02:27:34;;;;;;;8.85;3.40;;;5.00;90.20;;;;;;2072926;28;20569;-68
2021/04/17 02:28:34;;;;;;;6.50;3.30;;;5.00;90.50;;;;;;2072860;28;20061;-68
2021/04/17 02:29:35;;;;;;;7.18;3.50;;;4.90;90.50;;;;;;2081103;28;20481;-67
2021/04/17 02:30:36;;;;;;;6.95;3.53;;;4.90;90.70;;;;;;2081281;28;20082;-68
2021/04/17 02:31:37;;;;;;;11.20;3.70;;;4.90;90.80;;;;;;2073641;28;20120;-68
2021/04/17 02:32:38;;;;;;;6.63;3.30;;;4.80;91.00;;;;;;2073732;28;20041;-67
2021/04/17 02:33:38;;;;;;;9.00;3.80;;;4.80;91.10;;;;;;2073511;28;20413;-68
2021/04/17 02:34:40;;;;;;;6.55;3.15;;;4.80;91.20;;;;;;2069169;28;20533;-68
2021/04/17 02:35:41;;;;;;;10.35;3.95;;;4.80;91.40;;;;;;2068349;28;20053;-67
2021/04/17 02:36:42;;;;;;;8.98;3.40;;;4.70;91.50;;;;;;2080555;28;20041;-67
2021/04/17 02:37:42;;;;;;;5.85;3.20;;;4.70;91.60;;;;;;2080749;28;20053;-68
2021/04/17 02:38:43;;;;;;;7.10;3.55;;;4.70;91.90;;;;;;2073258;28;20018;-68
2021/04/17 02:39:44;;;;;;;8.95;3.38;;;4.60;92.10;;;;;;2073286;28;20529;-68
2021/04/17 02:40:45;;;;;;;7.05;3.58;;;4.60;92.30;;;;;;2080703;28;20056;-67
2021/04/17 02:41:46;;;;;;;6.82;3.70;;;4.60;92.30;;;;;;2072644;28;20541;-67
2021/04/17 02:42:47;;;;;;;5.97;3.55;;;4.60;92.40;;;;;;2072695;28;20022;-68
2021/04/17 02:43:48;;;;;;;6.15;3.50;;;4.60;92.50;;;;;;2072586;28;20025;-68
2021/04/17 02:44:49;;;;;;;6.53;3.40;;;4.60;92.60;;;;;;2072544;28;20033;-68
2021/04/17 02:45:49;;;;;;;7.30;3.63;;;4.60;92.80;;;;;;2080474;28;20789;-68
2021/04/17 02:46:50;;;;;;;9.10;4.13;;;4.60;93.00;;;;;;2072604;28;20390;-68
2021/04/17 02:47:50;;;;;;;8.52;4.10;;;4.60;93.20;;;;;;2072894;28;20061;-68
2021/04/17 02:48:51;;;;;;;8.65;4.28;;;4.60;93.20;;;;;;2073227;28;20026;-68
2021/04/17 02:49:52;;;;;;;8.27;4.32;;;4.60;93.60;;;;;;2073240;28;20021;-68
2021/04/17 02:50:52;;;;;;;6.82;4.13;;;4.50;93.90;;;;;;2073140;28;20052;-68
2021/04/17 02:51:53;;;;;;;6.57;4.10;;;4.50;93.90;;;;;;2073252;28;20026;-68
2021/04/17 02:52:54;;;;;;;7.45;4.22;;;4.50;94.00;;;;;;2073309;28;20049;-68
2021/04/17 02:53:55;;;;;;;5.72;3.85;;;4.50;94.00;;;;;;2080948;28;20026;-68
2021/04/17 02:54:55;;;;;;;9.40;4.53;;;4.50;94.10;;;;;;2080395;28;20716;-68
2021/04/17 02:55:56;;;;;;;7.15;4.18;;;4.50;94.30;;;;;;2073045;28;20026;-68
2021/04/17 02:56:57;;;;;;;8.48;4.57;;;4.50;94.20;;;;;;2080754;28;20032;-68
2021/04/17 02:57:58;;;;;;;9.15;5.35;;;4.50;93.90;;;;;;2080747;28;20378;-68
2021/04/17 02:58:58;;;;;;;8.48;5.10;;;4.50;94.00;;;;;;2073402;28;20493;-68
2021/04/17 02:59:59;;;;;;;13.20;6.00;;;4.50;94.10;;;;;;2072685;28;20022;-67
2021/04/17 03:01:01;;;;;;;9.85;4.93;;;4.50;94.10;;;;;;2072688;28;20029;-68
2021/04/17 03:02:01;;;;;;;10.65;5.18;;;4.40;94.20;;;;;;2073390;28;20026;-68
2021/04/17 03:03:02;;;;;;;8.30;5.40;;;4.40;94.00;;;;;;2073218;28;20084;-68
2021/04/17 03:04:04;;;;;;;8.55;5.28;;;4.40;94.20;;;;;;2073107;28;20053;-68
2021/04/17 03:05:07;;;;;;;10.82;5.50;;;4.40;94.20;;;;;;2072518;28;20683;-67
2021/04/17 03:06:07;;;;;;;9.32;5.20;;;4.40;94.20;;;;;;2072164;28;20481;-68
2021/04/17 03:07:08;;;;;;;10.25;5.28;;;4.40;94.30;;;;;;2073033;28;20033;-67
2021/04/17 03:08:13;;;;;;;10.52;5.50;;;4.30;94.40;;;;;;2071420;28;20033;-67
2021/04/17 03:09:14;;;;;;;9.48;5.45;;;4.30;94.50;;;;;;2073022;28;20044;-66
2021/04/17 03:10:15;;;;;;;9.75;5.40;;;4.30;94.60;;;;;;2080788;28;20037;-67
2021/04/17 03:11:16;;;;;;;10.38;5.65;;;4.20;94.80;;;;;;2080582;28;20025;-67
2021/04/17 03:12:17;;;;;;;11.13;5.70;;;4.30;95.20;;;;;;2080034;28;20030;-67
2021/04/17 03:13:17;;;;;;;8.63;5.40;;;4.30;95.30;;;;;;2072291;28;20076;-68
2021/04/17 03:14:18;;;;;;;10.65;5.28;;;4.30;95.20;;;;;;2072230;28;20038;-67
2021/04/17 03:15:19;;;;;;;9.00;5.05;;;4.20;95.50;;;;;;2080529;28;20136;-67
2021/04/17 03:16:20;;;;;;;8.48;5.10;;;4.20;95.30;;;;;;2072527;28;20053;-67
2021/04/17 03:17:20;;;;;;;8.55;5.30;;;4.20;95.50;;;;;;2079500;28;20102;-67
2021/04/17 03:18:21;;;;;;;10.27;5.45;;;4.20;95.90;;;;;;2073551;28;20598;-67
2021/04/17 03:19:22;;;;;;;7.03;4.85;;;4.20;95.90;;;;;;2072284;28;20030;-67
2021/04/17 03:20:23;;;;;;;8.35;4.80;;;4.20;95.90;;;;;;2071032;28;20025;-67
2021/04/17 03:21:24;;;;;;;7.13;4.95;;;4.20;95.80;;;;;;2066302;28;20058;-67
2021/04/17 03:22:24;;;;;;;7.15;4.82;;;4.30;95.90;;;;;;2080508;28;20104;-67
2021/04/17 03:23:25;;;;;;;7.28;4.80;;;4.30;96.10;;;;;;2072242;28;20121;-67
2021/04/17 03:24:26;;;;;;;9.60;4.97;;;4.30;96.10;;;;;;2071981;28;20485;-67
2021/04/17 03:25:27;;;;;;;8.85;4.43;;;4.30;96.10;;;;;;2072835;28;20036;-67
2021/04/17 03:26:27;;;;;;;12.40;4.90;;;4.30;95.80;;;;;;2072488;28;20104;-66
2021/04/17 03:27:28;;;;;;;8.13;4.35;;;4.30;95.80;;;;;;2078284;28;20033;-67
2021/04/17 03:28:29;;;;;;;8.88;4.55;;;4.30;95.80;;;;;;2080351;28;20064;-67
2021/04/17 03:29:30;;;;;;;9.02;4.45;;;4.30;95.90;;;;;;2072668;28;20117;-66
2021/04/17 03:30:30;;;;;;;8.23;4.40;;;4.30;95.80;;;;;;2072959;28;20040;-67
2021/04/17 03:31:31;;;;;;;7.47;4.22;;;4.30;95.90;;;;;;2072824;28;20527;-67
2021/04/17 03:32:32;;;;;;;10.30;4.63;;;4.30;96.00;;;;;;2072754;28;20034;-67
2021/04/17 03:33:32;;;;;;;8.25;4.40;;;4.30;96.00;;;;;;2072118;28;20198;-67
2021/04/17 03:34:33;;;;;;;11.18;4.20;;;4.30;96.00;;;;;;2072085;28;20049;-67
2021/04/17 03:35:34;;;;;;;14.60;4.80;;;4.30;95.90;;;;;;2077342;28;20105;-68
2021/04/17 03:36:34;;;;;;;9.70;4.72;;;4.20;96.10;;;;;;2074384;28;20022;-67
2021/04/17 03:37:36;;;;;;;10.02;4.60;;;4.20;96.10;;;;;;2072789;28;20069;-68
2021/04/17 03:38:37;;;;;;;10.05;4.50;;;4.20;96.20;;;;;;2072227;28;20099;-68
2021/04/17 03:39:38;;;;;;;9.13;4.30;;;4.20;96.30;;;;;;2072291;28;20026;-67
2021/04/17 03:40:38;;;;;;;9.90;4.93;;;4.30;96.40;;;;;;2080493;28;20025;-67
2021/04/17 03:41:39;;;;;;;9.77;4.60;;;4.30;96.40;;;;;;2073012;28;20030;-67
2021/04/17 03:42:40;;;;;;;9.98;4.68;;;4.20;96.30;;;;;;2072808;28;20026;-67
2021/04/17 03:43:41;;;;;;;8.55;4.43;;;4.30;96.40;;;;;;2069106;28;20023;-67
2021/04/17 03:44:42;;;;;;;11.05;4.80;;;4.30;96.40;;;;;;2068531;28;20022;-66
2021/04/17 03:45:43;;;;;;;11.05;4.50;;;4.30;96.50;;;;;;2071875;28;20482;-67
2021/04/17 03:46:46;;;;;;;9.75;4.60;;;4.20;96.60;;;;;;2072431;28;20018;-67
2021/04/17 03:47:47;;;;;;;10.35;4.78;;;4.20;96.60;;;;;;2080008;28;20057;-67
2021/04/17 03:48:48;;;;;;;10.60;4.70;;;4.30;96.90;;;;;;2067346;28;20021;-67
2021/04/17 03:49:49;;;;;;;9.55;4.30;;;4.20;96.70;;;;;;2064019;28;20074;-67
2021/04/17 03:50:49;;;;;;;7.43;4.45;;;4.20;96.70;;;;;;2077025;28;20033;-67
2021/04/17 03:51:50;;;;;;;8.52;4.63;;;4.30;96.80;;;;;;2080207;28;20025;-67
2021/04/17 03:52:51;;;;;;;7.35;4.30;;;4.20;96.90;;;;;;2072759;28;20103;-67
2021/04/17 03:53:52;;;;;;;9.25;4.70;;;4.30;96.90;;;;;;2072566;28;20152;-68
2021/04/17 03:54:53;;;;;;;10.13;4.65;;;4.30;96.90;;;;;;2079748;28;20025;-67
2021/04/17 03:55:54;;;;;;;10.57;4.90;;;4.30;96.90;;;;;;2079720;28;20025;-67
2021/04/17 03:56:54;;;;;;;12.05;4.70;;;4.30;96.80;;;;;;2072449;28;20030;-67
2021/04/17 03:57:55;;;;;;;12.57;4.97;;;4.30;96.60;;;;;;2080171;28;20025;-67
2021/04/17 03:58:56;;;;;;;10.18;5.00;;;4.20;96.30;;;;;;2074484;28;20022;-68
2021/04/17 03:59:56;;;;;;;10.68;5.03;;;4.20;96.40;;;;;;2069800;28;20105;-67
2021/04/17 04:00:57;;;;;;;8.50;4.72;;;4.20;96.20;;;;;;2063790;28;20026;-67
2021/04/17 04:01:57;;;;;;;10.32;4.97;;;4.20;96.40;;;;;;2072042;28;20033;-67
2021/04/17 04:02:59;;;;;;;8.70;4.57;;;4.20;96.50;;;;;;2080142;28;20128;-67
2021/04/17 04:04:00;;;;;;;7.72;4.53;;;4.20;96.60;;;;;;2080027;28;20029;-67
2021/04/17 04:05:02;;;;;;;7.93;4.15;;;4.20;96.70;;;;;;2072520;28;20053;-67
2021/04/17 04:06:03;;;;;;;11.38;4.50;;;4.20;96.70;;;;;;2079911;28;20107;-66
2021/04/17 04:07:05;;;;;;;9.13;4.70;;;4.20;96.70;;;;;;2079980;28;20531;-67
2021/04/17 04:08:06;;;;;;;10.82;4.75;;;4.20;96.80;;;;;;2065547;28;20030;-67
2021/04/17 04:09:06;;;;;;;9.13;4.57;;;4.20;96.70;;;;;;2071151;28;20409;-67
2021/04/17 04:10:09;;;;;;;7.97;4.53;;;4.20;96.70;;;;;;2072044;28;20025;-67
2021/04/17 04:11:09;;;;;;;9.20;4.45;;;4.20;96.50;;;;;;2072503;28;20556;-66
2021/04/17 04:12:10;;;;;;;7.93;4.35;;;4.20;96.50;;;;;;2080063;28;20071;-67
2021/04/17 04:13:10;;;;;;;8.82;4.60;;;4.20;96.60;;;;;;2080034;28;20088;-67
2021/04/17 04:14:11;;;;;;;9.25;4.35;;;4.20;96.70;;;;;;2064633;28;20037;-69
2021/04/17 04:15:14;;;;;;;11.95;5.03;;;4.20;96.90;;;;;;2072381;28;20355;-68
2021/04/17 04:16:14;;;;;;;8.77;4.57;;;4.20;96.90;;;;;;2071848;28;20134;-69
2021/04/17 04:17:15;;;;;;;7.75;4.47;;;4.20;96.70;;;;;;2080085;28;20507;-69
2021/04/17 04:18:16;;;;;;;8.05;4.72;;;4.20;96.60;;;;;;2072579;28;20036;-68
2021/04/17 04:19:16;;;;;;;11.15;5.00;;;4.20;96.80;;;;;;2079802;28;20021;-68
2021/04/17 04:20:17;;;;;;;11.90;5.45;;;4.20;96.90;;;;;;2080914;28;20040;-68
2021/04/17 04:21:18;;;;;;;9.55;5.10;;;4.20;96.90;;;;;;2072369;28;20505;-69
2021/04/17 04:22:18;;;;;;;7.45;4.50;;;4.20;96.70;;;;;;2072691;28;20033;-68
2021/04/17 04:23:19;;;;;;;7.63;4.55;;;4.20;96.60;;;;;;2065957;28;20062;-68
2021/04/17 04:24:20;;;;;;;9.13;4.95;;;4.20;96.60;;;;;;2072118;28;20025;-68
2021/04/17 04:25:20;;;;;;;11.13;4.90;;;4.20;96.40;;;;;;2071832;28;20632;-68
2021/04/17 04:26:21;;;;;;;9.98;4.80;;;4.20;96.50;;;;;;2071845;28;20718;-68
2021/04/17 04:27:21;;;;;;;11.80;5.05;;;4.20;96.50;;;;;;2072639;28;20033;-68
2021/04/17 04:28:22;;;;;;;9.48;5.30;;;4.10;96.60;;;;;;2072491;28;20022;-68
2021/04/17 04:29:23;;;;;;;10.63;5.20;;;4.20;96.50;;;;;;2072368;28;20029;-68
2021/04/17 04:30:24;;;;;;;10.52;5.18;;;4.10;96.50;;;;;;2080152;28;20515;-68
2021/04/17 04:31:25;;;;;;;7.38;4.68;;;4.10;96.50;;;;;;2080074;28;20096;-68
2021/04/17 04:32:25;;;;;;;9.27;5.00;;;4.10;96.70;;;;;;2070983;28;20072;-67
2021/04/17 04:33:26;;;;;;;10.88;5.30;;;4.10;96.80;;;;;;2066359;28;20097;-66
2021/04/17 04:34:27;;;;;;;9.40;5.30;;;4.20;96.80;;;;;;2071993;28;20449;-65
2021/04/17 04:35:27;;;;;;;13.30;5.75;;;4.20;96.70;;;;;;2072081;28;20105;-68
2021/04/17 04:36:28;;;;;;;8.50;4.95;;;4.20;96.50;;;;;;2072307;28;20367;-66
2021/04/17 04:37:28;;;;;;;9.90;5.07;;;4.20;96.60;;;;;;2070345;28;20145;-67
2021/04/17 04:38:29;;;;;;;11.10;5.40;;;4.20;96.60;;;;;;2066905;28;20038;-66
2021/04/17 04:39:30;;;;;;;11.48;5.35;;;4.10;96.70;;;;;;2071831;28;20026;-66
2021/04/17 04:40:30;;;;;;;11.40;5.53;;;4.20;96.80;;;;;;2069576;28;20030;-67
2021/04/17 04:41:31;;;;;;;10.50;5.22;;;4.10;96.90;;;;;;2066925;28;20030;-66
2021/04/17 04:42:32;;;;;;;12.80;5.47;;;4.20;97.00;;;;;;2072495;28;20029;-67
2021/04/17 04:43:33;;;;;;;10.15;5.10;;;4.20;96.80;;;;;;2069696;28;20625;-66
2021/04/17 04:44:33;;;;;;;8.27;5.00;;;4.20;96.80;;;;;;2074516;28;20053;-66
2021/04/17 04:45:34;;;;;;;10.23;5.55;;;4.20;96.80;;;;;;2079868;28;20059;-66
2021/04/17 04:46:35;;;;;;;13.77;5.50;;;4.20;96.80;;;;;;2072130;28;20076;-67
2021/04/17 04:47:36;;;;;;;9.35;5.07;;;4.20;96.70;;;;;;2072442;28;20048;-66
2021/04/17 04:48:36;;;;;;;9.93;5.07;;;4.20;96.70;;;;;;2072343;28;20113;-66
2021/04/17 04:49:37;;;;;;;11.73;5.38;;;4.20;96.70;;;;;;2072393;28;20053;-67
2021/04/17 04:50:38;;;;;;;10.88;5.20;;;4.20;96.70;;;;;;2072357;28;20030;-67
2021/04/17 04:51:39;;;;;;;10.98;5.00;;;4.20;96.70;;;;;;2071691;28;20038;-66
2021/04/17 04:52:39;;;;;;;9.40;5.22;;;4.20;96.70;;;;;;2071623;28;20025;-67
2021/04/17 04:53:40;;;;;;;13.27;5.63;;;4.20;96.60;;;;;;2072286;28;20014;-67
2021/04/17 04:54:40;;;;;;;9.13;5.18;;;4.20;96.60;;;;;;2079364;28;20516;-67
2021/04/17 04:55:41;;;;;;;12.05;5.47;;;4.20;96.60;;;;;;2067429;28;20026;-67
2021/04/17 04:56:42;;;;;;;9.50;5.45;;;4.20;96.70;;;;;;2059280;28;20026;-67
2021/04/17 04:57:42;;;;;;;9.48;5.28;;;4.20;96.90;;;;;;2068381;28;20023;-66
2021/04/17 04:58:43;;;;;;;11.15;5.35;;;4.20;96.80;;;;;;2068372;28;20022;-67
2021/04/17 04:59:43;;;;;;;9.27;5.22;;;4.20;96.90;;;;;;2079892;28;20021;-66
2021/04/17 05:00:44;;;;;;;11.60;5.50;;;4.30;96.80;;;;;;2079816;28;20025;-66
2021/04/17 05:01:45;;;;;;;10.18;5.30;;;4.20;96.60;;;;;;2071732;28;20065;-67
2021/04/17 05:02:45;;;;;;;10.85;5.30;;;4.30;96.80;;;;;;2071732;28;20434;-67
2021/04/17 05:03:46;;;;;;;12.52;5.70;;;4.20;96.80;;;;;;2072315;28;20171;-67
2021/04/17 05:04:47;;;;;;;10.25;5.35;;;4.30;96.70;;;;;;2072208;28;20105;-67
2021/04/17 05:05:47;;;;;;;9.65;5.15;;;4.30;96.80;;;;;;2072012;28;20029;-67
2021/04/17 05:06:48;;;;;;;10.27;5.40;;;4.30;97.10;;;;;;2072164;28;20036;-67
2021/04/17 05:07:48;;;;;;;8.48;5.10;;;4.30;96.90;;;;;;2079897;28;20049;-68
2021/04/17 05:08:49;;;;;;;8.45;4.45;;;4.30;96.90;;;;;;2079795;28;20026;-67
2021/04/17 05:09:50;;;;;;;9.93;5.40;;;4.30;96.90;;;;;;2072279;28;20614;-67
2021/04/17 05:10:50;;;;;;;8.55;5.10;;;4.40;97.00;;;;;;2067190;28;20105;-68
2021/04/17 05:11:51;;;;;;;10.80;5.28;;;4.40;96.90;;;;;;2069217;28;20026;-68
2021/04/17 05:12:51;;;;;;;8.73;5.13;;;4.30;96.80;;;;;;2071633;28;20025;-69
2021/04/17 05:13:52;;;;;;;8.40;5.18;;;4.30;96.70;;;;;;2071444;28;20029;-68
2021/04/17 05:14:53;;;;;;;7.10;4.68;;;4.30;96.80;;;;;;2079833;28;20097;-69
2021/04/17 05:15:53;;;;;;;9.05;5.28;;;4.40;96.70;;;;;;2079355;28;20588;-68
2021/04/17 05:16:54;;;;;;;8.57;5.43;;;4.40;96.70;;;;;;2079701;28;20061;-68
2021/04/17 05:17:54;;;;;;;8.93;5.35;;;4.40;96.80;;;;;;2072303;28;20159;-68
2021/04/17 05:18:55;;;;;;;10.10;5.15;;;4.40;96.70;;;;;;2071800;28;20026;-68
2021/04/17 05:19:56;;;;;;;9.80;5.22;;;4.40;96.80;;;;;;2063506;28;20022;-67
2021/04/17 05:20:56;;;;;;;9.93;5.05;;;4.40;96.60;;;;;;2057972;28;20062;-68
2021/04/17 05:21:57;;;;;;;8.95;4.95;;;4.40;96.70;;;;;;2071856;28;20108;-68
2021/04/17 05:22:58;;;;;;;12.77;5.30;;;4.40;96.60;;;;;;2071923;28;20101;-67
2021/04/17 05:23:59;;;;;;;9.77;5.25;;;4.40;96.30;;;;;;2071875;28;20034;-68
2021/04/17 05:25:00;;;;;;;10.30;5.22;;;4.40;96.30;;;;;;2079514;28;20041;-68